sensor_id;sensor_type;location;lat;lon;timestamp;P1;durP1;ratioP1;P2;durP2;ratioP2
32918;SDS011;19280;42.646;21.150;2022-07-19T00:00:13;16.52;;;4.75;;
32918;SDS011;19280;42.646;21.150;2022-07-19T00:05:26;19.67;;;4.93;;
32918;SDS011;19280;42.646;21.150;2022-07-19T00:07:53;14.68;;;4.72;;
32918;SDS011;19280;42.646;21.150;2022-07-19T00:10:20;13.55;;;5.13;;
32918;SDS011;19280;42.646;21.150;2022-07-19T00:12:47;12.88;;;5.28;;
32918;SDS011;19280;42.646;21.150;2022-07-19T00:15:15;21.45;;;4.97;;
32918;SDS011;19280;42.646;21.150;2022-07-19T00:17:42;9.60;;;4.85;;
32918;SDS011;19280;42.646;21.150;2022-07-19T00:20:10;14.82;;;5.18;;
32918;SDS011;19280;42.646;21.150;2022-07-19T00:22:37;13.80;;;5.15;;
32918;SDS011;19280;42.646;21.150;2022-07-19T00:25:04;11.35;;;4.60;;
32918;SDS011;19280;42.646;21.150;2022-07-19T00:27:31;11.40;;;4.95;;
32918;SDS011;19280;42.646;21.150;2022-07-19T00:29:58;10.75;;;5.00;;
32918;SDS011;19280;42.646;21.150;2022-07-19T00:32:25;11.15;;;5.80;;
32918;SDS011;19280;42.646;21.150;2022-07-19T00:34:52;11.52;;;5.13;;
32918;SDS011;19280;42.646;21.150;2022-07-19T00:37:19;14.65;;;5.50;;
32918;SDS011;19280;42.646;21.150;2022-07-19T00:39:46;17.00;;;5.50;;
32918;SDS011;19280;42.646;21.150;2022-07-19T00:42:12;10.82;;;4.72;;
32918;SDS011;19280;42.646;21.150;2022-07-19T00:44:40;8.70;;;4.72;;
32918;SDS011;19280;42.646;21.150;2022-07-19T00:47:07;21.50;;;5.50;;
32918;SDS011;19280;42.646;21.150;2022-07-19T00:49:34;11.88;;;5.00;;
32918;SDS011;19280;42.646;21.150;2022-07-19T00:52:02;9.20;;;4.10;;
32918;SDS011;19280;42.646;21.150;2022-07-19T00:54:30;12.02;;;4.75;;
32918;SDS011;19280;42.646;21.150;2022-07-19T00:57:02;10.90;;;4.60;;
32918;SDS011;19280;42.646;21.150;2022-07-19T00:59:29;11.80;;;4.65;;
32918;SDS011;19280;42.646;21.150;2022-07-19T01:01:56;9.38;;;4.28;;
32918;SDS011;19280;42.646;21.150;2022-07-19T01:04:23;9.27;;;4.78;;
32918;SDS011;19280;42.646;21.150;2022-07-19T01:06:50;10.20;;;4.57;;
32918;SDS011;19280;42.646;21.150;2022-07-19T01:09:16;6.40;;;3.80;;
32918;SDS011;19280;42.646;21.150;2022-07-19T01:11:43;9.82;;;3.70;;
32918;SDS011;19280;42.646;21.150;2022-07-19T01:14:10;6.63;;;4.22;;
32918;SDS011;19280;42.646;21.150;2022-07-19T01:16:45;8.77;;;3.92;;
32918;SDS011;19280;42.646;21.150;2022-07-19T01:19:12;6.45;;;3.53;;
32918;SDS011;19280;42.646;21.150;2022-07-19T01:21:40;11.75;;;4.38;;
32918;SDS011;19280;42.646;21.150;2022-07-19T01:24:07;7.70;;;3.90;;
32918;SDS011;19280;42.646;21.150;2022-07-19T01:26:34;6.50;;;3.60;;
32918;SDS011;19280;42.646;21.150;2022-07-19T01:29:01;8.27;;;3.65;;
32918;SDS011;19280;42.646;21.150;2022-07-19T01:31:28;6.43;;;3.53;;
32918;SDS011;19280;42.646;21.150;2022-07-19T01:33:55;7.15;;;3.90;;
32918;SDS011;19280;42.646;21.150;2022-07-19T01:36:22;8.85;;;3.75;;
32918;SDS011;19280;42.646;21.150;2022-07-19T01:38:49;13.50;;;3.80;;
32918;SDS011;19280;42.646;21.150;2022-07-19T01:41:15;5.82;;;3.55;;
32918;SDS011;19280;42.646;21.150;2022-07-19T01:43:42;10.98;;;5.18;;
32918;SDS011;19280;42.646;21.150;2022-07-19T01:46:10;8.05;;;3.97;;
32918;SDS011;19280;42.646;21.150;2022-07-19T01:48:37;8.90;;;4.40;;
32918;SDS011;19280;42.646;21.150;2022-07-19T01:51:03;10.35;;;4.20;;
32918;SDS011;19280;42.646;21.150;2022-07-19T01:53:30;10.20;;;4.53;;
32918;SDS011;19280;42.646;21.150;2022-07-19T01:55:57;8.57;;;4.35;;
32918;SDS011;19280;42.646;21.150;2022-07-19T01:58:24;12.05;;;4.20;;
32918;SDS011;19280;42.646;21.150;2022-07-19T02:00:50;8.57;;;3.88;;
32918;SDS011;19280;42.646;21.150;2022-07-19T02:03:17;8.05;;;4.30;;
32918;SDS011;19280;42.646;21.150;2022-07-19T02:05:44;9.63;;;3.85;;
32918;SDS011;19280;42.646;21.150;2022-07-19T02:08:11;6.35;;;3.83;;
32918;SDS011;19280;42.646;21.150;2022-07-19T02:10:37;6.05;;;4.15;;
32918;SDS011;19280;42.646;21.150;2022-07-19T02:13:04;10.45;;;5.78;;
32918;SDS011;19280;42.646;21.150;2022-07-19T02:15:31;10.15;;;5.50;;
32918;SDS011;19280;42.646;21.150;2022-07-19T02:17:59;10.40;;;5.18;;
32918;SDS011;19280;42.646;21.150;2022-07-19T02:20:25;11.07;;;4.80;;
32918;SDS011;19280;42.646;21.150;2022-07-19T02:22:52;10.65;;;4.68;;
32918;SDS011;19280;42.646;21.150;2022-07-19T02:25:19;11.00;;;4.90;;
32918;SDS011;19280;42.646;21.150;2022-07-19T02:27:46;9.40;;;5.07;;
32918;SDS011;19280;42.646;21.150;2022-07-19T02:30:12;9.45;;;4.18;;
32918;SDS011;19280;42.646;21.150;2022-07-19T02:32:40;6.22;;;4.35;;
32918;SDS011;19280;42.646;21.150;2022-07-19T02:35:07;8.98;;;4.65;;
32918;SDS011;19280;42.646;21.150;2022-07-19T02:37:34;13.23;;;4.50;;
32918;SDS011;19280;42.646;21.150;2022-07-19T02:40:01;12.15;;;5.22;;
32918;SDS011;19280;42.646;21.150;2022-07-19T02:42:28;10.68;;;5.00;;
32918;SDS011;19280;42.646;21.150;2022-07-19T02:44:55;12.75;;;5.25;;
32918;SDS011;19280;42.646;21.150;2022-07-19T02:47:22;13.13;;;5.50;;
32918;SDS011;19280;42.646;21.150;2022-07-19T02:49:50;10.05;;;4.82;;
32918;SDS011;19280;42.646;21.150;2022-07-19T02:55:03;9.32;;;4.95;;
32918;SDS011;19280;42.646;21.150;2022-07-19T02:57:30;11.20;;;5.05;;
32918;SDS011;19280;42.646;21.150;2022-07-19T03:02:42;16.50;;;6.20;;
32918;SDS011;19280;42.646;21.150;2022-07-19T03:05:09;13.27;;;5.95;;
32918;SDS011;19280;42.646;21.150;2022-07-19T03:07:37;14.70;;;5.50;;
32918;SDS011;19280;42.646;21.150;2022-07-19T03:10:04;16.15;;;5.78;;
32918;SDS011;19280;42.646;21.150;2022-07-19T03:12:31;12.02;;;6.22;;
32918;SDS011;19280;42.646;21.150;2022-07-19T03:14:58;17.23;;;6.43;;
32918;SDS011;19280;42.646;21.150;2022-07-19T03:17:25;19.20;;;6.82;;
32918;SDS011;19280;42.646;21.150;2022-07-19T03:19:51;15.73;;;7.15;;
32918;SDS011;19280;42.646;21.150;2022-07-19T03:22:18;22.88;;;6.97;;
32918;SDS011;19280;42.646;21.150;2022-07-19T03:24:45;16.10;;;8.35;;
32918;SDS011;19280;42.646;21.150;2022-07-19T03:27:11;13.68;;;7.00;;
32918;SDS011;19280;42.646;21.150;2022-07-19T03:29:38;14.30;;;5.72;;
32918;SDS011;19280;42.646;21.150;2022-07-19T03:32:05;13.32;;;5.43;;
32918;SDS011;19280;42.646;21.150;2022-07-19T03:34:32;7.78;;;5.55;;
32918;SDS011;19280;42.646;21.150;2022-07-19T03:36:58;10.15;;;5.35;;
32918;SDS011;19280;42.646;21.150;2022-07-19T03:39:25;11.13;;;5.60;;
32918;SDS011;19280;42.646;21.150;2022-07-19T03:41:52;8.45;;;4.43;;
32918;SDS011;19280;42.646;21.150;2022-07-19T03:44:18;13.20;;;4.95;;
32918;SDS011;19280;42.646;21.150;2022-07-19T03:46:45;13.38;;;4.60;;
32918;SDS011;19280;42.646;21.150;2022-07-19T03:49:12;10.10;;;4.30;;
32918;SDS011;19280;42.646;21.150;2022-07-19T03:51:38;8.40;;;4.53;;
32918;SDS011;19280;42.646;21.150;2022-07-19T03:54:05;6.47;;;3.90;;
32918;SDS011;19280;42.646;21.150;2022-07-19T03:56:33;8.32;;;4.18;;
32918;SDS011;19280;42.646;21.150;2022-07-19T03:58:59;7.70;;;3.45;;
32918;SDS011;19280;42.646;21.150;2022-07-19T04:01:27;9.77;;;3.83;;
32918;SDS011;19280;42.646;21.150;2022-07-19T04:03:53;7.55;;;3.35;;
32918;SDS011;19280;42.646;21.150;2022-07-19T04:06:20;9.30;;;3.30;;
32918;SDS011;19280;42.646;21.150;2022-07-19T04:08:47;5.38;;;2.80;;
32918;SDS011;19280;42.646;21.150;2022-07-19T04:11:14;6.30;;;2.85;;
32918;SDS011;19280;42.646;21.150;2022-07-19T04:13:41;6.90;;;2.92;;
32918;SDS011;19280;42.646;21.150;2022-07-19T04:16:08;6.75;;;2.88;;
32918;SDS011;19280;42.646;21.150;2022-07-19T04:18:35;4.05;;;2.40;;
32918;SDS011;19280;42.646;21.150;2022-07-19T04:21:02;8.45;;;2.47;;
32918;SDS011;19280;42.646;21.150;2022-07-19T04:23:29;3.45;;;2.55;;
32918;SDS011;19280;42.646;21.150;2022-07-19T04:25:56;12.70;;;2.55;;
32918;SDS011;19280;42.646;21.150;2022-07-19T04:28:23;4.70;;;2.28;;
32918;SDS011;19280;42.646;21.150;2022-07-19T04:30:50;5.82;;;2.72;;
32918;SDS011;19280;42.646;21.150;2022-07-19T04:33:17;6.57;;;2.47;;
32918;SDS011;19280;42.646;21.150;2022-07-19T04:35:45;9.70;;;2.33;;
32918;SDS011;19280;42.646;21.150;2022-07-19T04:38:12;5.53;;;3.63;;
32918;SDS011;19280;42.646;21.150;2022-07-19T04:40:38;6.32;;;3.50;;
32918;SDS011;19280;42.646;21.150;2022-07-19T04:43:05;4.57;;;2.88;;
32918;SDS011;19280;42.646;21.150;2022-07-19T04:45:32;4.45;;;2.25;;
32918;SDS011;19280;42.646;21.150;2022-07-19T04:47:59;6.32;;;2.22;;
32918;SDS011;19280;42.646;21.150;2022-07-19T04:50:25;5.70;;;2.53;;
32918;SDS011;19280;42.646;21.150;2022-07-19T04:52:53;3.30;;;2.28;;
32918;SDS011;19280;42.646;21.150;2022-07-19T04:55:20;6.50;;;2.58;;
32918;SDS011;19280;42.646;21.150;2022-07-19T04:57:47;4.72;;;2.10;;
32918;SDS011;19280;42.646;21.150;2022-07-19T05:00:13;3.95;;;2.10;;
32918;SDS011;19280;42.646;21.150;2022-07-19T05:02:40;6.97;;;2.30;;
32918;SDS011;19280;42.646;21.150;2022-07-19T05:05:08;8.25;;;2.63;;
32918;SDS011;19280;42.646;21.150;2022-07-19T05:07:35;3.67;;;2.30;;
32918;SDS011;19280;42.646;21.150;2022-07-19T05:10:03;3.28;;;1.70;;
32918;SDS011;19280;42.646;21.150;2022-07-19T05:12:30;8.20;;;2.03;;
32918;SDS011;19280;42.646;21.150;2022-07-19T05:14:57;2.30;;;1.60;;
32918;SDS011;19280;42.646;21.150;2022-07-19T05:17:24;3.83;;;2.15;;
32918;SDS011;19280;42.646;21.150;2022-07-19T05:22:36;8.55;;;2.45;;
32918;SDS011;19280;42.646;21.150;2022-07-19T05:25:03;3.85;;;2.10;;
32918;SDS011;19280;42.646;21.150;2022-07-19T05:27:29;6.03;;;2.00;;
32918;SDS011;19280;42.646;21.150;2022-07-19T05:29:56;4.05;;;1.92;;
32918;SDS011;19280;42.646;21.150;2022-07-19T05:32:23;9.35;;;2.75;;
32918;SDS011;19280;42.646;21.150;2022-07-19T05:34:49;5.72;;;2.13;;
32918;SDS011;19280;42.646;21.150;2022-07-19T05:37:16;9.20;;;2.03;;
32918;SDS011;19280;42.646;21.150;2022-07-19T05:39:43;7.90;;;1.90;;
32918;SDS011;19280;42.646;21.150;2022-07-19T05:42:09;7.45;;;2.10;;
32918;SDS011;19280;42.646;21.150;2022-07-19T05:44:36;5.93;;;1.88;;
32918;SDS011;19280;42.646;21.150;2022-07-19T05:47:03;2.85;;;1.98;;
32918;SDS011;19280;42.646;21.150;2022-07-19T05:49:30;5.00;;;2.58;;
32918;SDS011;19280;42.646;21.150;2022-07-19T05:51:56;6.10;;;2.00;;
32918;SDS011;19280;42.646;21.150;2022-07-19T05:54:23;5.95;;;2.05;;
32918;SDS011;19280;42.646;21.150;2022-07-19T05:56:50;5.90;;;2.30;;
32918;SDS011;19280;42.646;21.150;2022-07-19T05:59:17;7.38;;;2.63;;
32918;SDS011;19280;42.646;21.150;2022-07-19T06:01:46;9.02;;;2.15;;
32918;SDS011;19280;42.646;21.150;2022-07-19T06:04:14;6.40;;;2.50;;
32918;SDS011;19280;42.646;21.150;2022-07-19T06:06:41;6.18;;;2.88;;
32918;SDS011;19280;42.646;21.150;2022-07-19T06:09:07;10.20;;;2.65;;
32918;SDS011;19280;42.646;21.150;2022-07-19T06:11:38;12.38;;;2.80;;
32918;SDS011;19280;42.646;21.150;2022-07-19T06:16:51;8.18;;;3.00;;
32918;SDS011;19280;42.646;21.150;2022-07-19T06:19:19;7.03;;;2.92;;
32918;SDS011;19280;42.646;21.150;2022-07-19T06:21:46;4.50;;;2.40;;
32918;SDS011;19280;42.646;21.150;2022-07-19T06:24:13;9.80;;;2.53;;
32918;SDS011;19280;42.646;21.150;2022-07-19T06:26:40;10.55;;;2.60;;
32918;SDS011;19280;42.646;21.150;2022-07-19T06:29:07;8.77;;;2.80;;
32918;SDS011;19280;42.646;21.150;2022-07-19T06:31:34;7.82;;;2.42;;
32918;SDS011;19280;42.646;21.150;2022-07-19T06:34:00;5.85;;;2.35;;
32918;SDS011;19280;42.646;21.150;2022-07-19T06:36:27;5.60;;;2.47;;
32918;SDS011;19280;42.646;21.150;2022-07-19T06:38:54;10.70;;;2.38;;
32918;SDS011;19280;42.646;21.150;2022-07-19T06:41:21;5.63;;;2.33;;
32918;SDS011;19280;42.646;21.150;2022-07-19T06:43:47;10.65;;;2.55;;
32918;SDS011;19280;42.646;21.150;2022-07-19T06:46:14;4.63;;;2.35;;
32918;SDS011;19280;42.646;21.150;2022-07-19T06:48:40;7.65;;;2.35;;
32918;SDS011;19280;42.646;21.150;2022-07-19T06:51:07;6.53;;;2.42;;
32918;SDS011;19280;42.646;21.150;2022-07-19T06:53:34;4.78;;;2.10;;
32918;SDS011;19280;42.646;21.150;2022-07-19T06:56:01;5.20;;;2.50;;
32918;SDS011;19280;42.646;21.150;2022-07-19T06:58:28;5.15;;;2.20;;
32918;SDS011;19280;42.646;21.150;2022-07-19T07:00:55;3.25;;;1.83;;
32918;SDS011;19280;42.646;21.150;2022-07-19T07:03:22;4.25;;;1.70;;
32918;SDS011;19280;42.646;21.150;2022-07-19T07:05:48;6.72;;;1.95;;
32918;SDS011;19280;42.646;21.150;2022-07-19T07:08:15;5.88;;;2.13;;
32918;SDS011;19280;42.646;21.150;2022-07-19T07:10:42;6.63;;;2.00;;
32918;SDS011;19280;42.646;21.150;2022-07-19T07:13:09;8.85;;;2.00;;
32918;SDS011;19280;42.646;21.150;2022-07-19T07:15:35;4.22;;;1.75;;
32918;SDS011;19280;42.646;21.150;2022-07-19T07:18:03;5.60;;;1.70;;
32918;SDS011;19280;42.646;21.150;2022-07-19T07:20:30;4.65;;;1.80;;
32918;SDS011;19280;42.646;21.150;2022-07-19T07:23:00;7.72;;;2.00;;
32918;SDS011;19280;42.646;21.150;2022-07-19T07:25:27;4.43;;;2.00;;
32918;SDS011;19280;42.646;21.150;2022-07-19T07:27:54;6.45;;;1.75;;
32918;SDS011;19280;42.646;21.150;2022-07-19T07:30:21;6.03;;;1.88;;
32918;SDS011;19280;42.646;21.150;2022-07-19T07:32:48;3.33;;;2.10;;
32918;SDS011;19280;42.646;21.150;2022-07-19T07:35:15;12.27;;;2.15;;
32918;SDS011;19280;42.646;21.150;2022-07-19T07:37:41;6.45;;;1.55;;
32918;SDS011;19280;42.646;21.150;2022-07-19T07:40:09;6.47;;;1.80;;
32918;SDS011;19280;42.646;21.150;2022-07-19T07:42:36;5.43;;;1.73;;
32918;SDS011;19280;42.646;21.150;2022-07-19T07:45:03;2.90;;;1.83;;
32918;SDS011;19280;42.646;21.150;2022-07-19T07:47:32;5.13;;;1.70;;
32918;SDS011;19280;42.646;21.150;2022-07-19T07:50:00;4.88;;;1.98;;
32918;SDS011;19280;42.646;21.150;2022-07-19T07:52:27;3.88;;;1.73;;
32918;SDS011;19280;42.646;21.150;2022-07-19T07:54:53;4.53;;;1.63;;
32918;SDS011;19280;42.646;21.150;2022-07-19T07:57:20;4.47;;;1.80;;
32918;SDS011;19280;42.646;21.150;2022-07-19T07:59:47;3.25;;;1.65;;
32918;SDS011;19280;42.646;21.150;2022-07-19T08:02:14;5.15;;;1.90;;
32918;SDS011;19280;42.646;21.150;2022-07-19T08:04:41;4.68;;;1.60;;
32918;SDS011;19280;42.646;21.150;2022-07-19T08:07:07;4.32;;;2.17;;
32918;SDS011;19280;42.646;21.150;2022-07-19T08:09:34;3.30;;;2.00;;
32918;SDS011;19280;42.646;21.150;2022-07-19T08:12:01;2.05;;;1.80;;
32918;SDS011;19280;42.646;21.150;2022-07-19T08:14:28;3.72;;;2.03;;
32918;SDS011;19280;42.646;21.150;2022-07-19T08:16:55;2.97;;;1.73;;
32918;SDS011;19280;42.646;21.150;2022-07-19T08:19:23;8.73;;;2.13;;
32918;SDS011;19280;42.646;21.150;2022-07-19T08:21:49;3.45;;;2.10;;
32918;SDS011;19280;42.646;21.150;2022-07-19T08:24:18;5.32;;;1.95;;
32918;SDS011;19280;42.646;21.150;2022-07-19T08:26:45;8.65;;;2.53;;
32918;SDS011;19280;42.646;21.150;2022-07-19T08:29:12;4.47;;;1.80;;
32918;SDS011;19280;42.646;21.150;2022-07-19T08:31:38;6.25;;;2.25;;
32918;SDS011;19280;42.646;21.150;2022-07-19T08:34:05;4.82;;;2.10;;
32918;SDS011;19280;42.646;21.150;2022-07-19T08:36:32;5.43;;;1.90;;
32918;SDS011;19280;42.646;21.150;2022-07-19T08:38:59;5.43;;;1.88;;
32918;SDS011;19280;42.646;21.150;2022-07-19T08:41:25;4.63;;;1.98;;
32918;SDS011;19280;42.646;21.150;2022-07-19T08:43:52;5.63;;;2.13;;
32918;SDS011;19280;42.646;21.150;2022-07-19T08:46:20;3.05;;;2.17;;
32918;SDS011;19280;42.646;21.150;2022-07-19T08:48:47;3.47;;;1.95;;
32918;SDS011;19280;42.646;21.150;2022-07-19T08:51:18;4.32;;;2.20;;
32918;SDS011;19280;42.646;21.150;2022-07-19T08:53:45;6.93;;;1.90;;
32918;SDS011;19280;42.646;21.150;2022-07-19T08:56:12;6.88;;;2.42;;
32918;SDS011;19280;42.646;21.150;2022-07-19T08:58:58;4.97;;;1.95;;
32918;SDS011;19280;42.646;21.150;2022-07-19T09:01:25;8.63;;;2.03;;
32918;SDS011;19280;42.646;21.150;2022-07-19T09:04:02;5.22;;;2.10;;
32918;SDS011;19280;42.646;21.150;2022-07-19T09:06:36;6.75;;;2.08;;
32918;SDS011;19280;42.646;21.150;2022-07-19T09:09:04;6.05;;;1.95;;
32918;SDS011;19280;42.646;21.150;2022-07-19T09:11:34;7.65;;;1.83;;
32918;SDS011;19280;42.646;21.150;2022-07-19T09:14:08;4.95;;;1.70;;
32918;SDS011;19280;42.646;21.150;2022-07-19T09:16:49;4.20;;;1.52;;
32918;SDS011;19280;42.646;21.150;2022-07-19T09:19:16;4.13;;;2.08;;
32918;SDS011;19280;42.646;21.150;2022-07-19T09:22:00;5.32;;;2.75;;
32918;SDS011;19280;42.646;21.150;2022-07-19T09:24:28;3.88;;;1.98;;
32918;SDS011;19280;42.646;21.150;2022-07-19T09:29:22;3.22;;;1.83;;
32918;SDS011;19280;42.646;21.150;2022-07-19T09:32:00;4.05;;;1.58;;
32918;SDS011;19280;42.646;21.150;2022-07-19T09:34:30;3.35;;;1.70;;
32918;SDS011;19280;42.646;21.150;2022-07-19T09:39:38;4.70;;;1.50;;
32918;SDS011;19280;42.646;21.150;2022-07-19T09:42:10;5.95;;;1.50;;
32918;SDS011;19280;42.646;21.150;2022-07-19T09:44:39;3.83;;;1.70;;
32918;SDS011;19280;42.646;21.150;2022-07-19T09:47:06;2.10;;;1.50;;
32918;SDS011;19280;42.646;21.150;2022-07-19T09:49:33;2.97;;;1.80;;
32918;SDS011;19280;42.646;21.150;2022-07-19T09:52:00;2.45;;;1.73;;
32918;SDS011;19280;42.646;21.150;2022-07-19T09:54:27;6.28;;;1.90;;
32918;SDS011;19280;42.646;21.150;2022-07-19T09:56:55;5.15;;;1.95;;
32918;SDS011;19280;42.646;21.150;2022-07-19T09:59:22;6.07;;;1.60;;
32918;SDS011;19280;42.646;21.150;2022-07-19T10:01:51;9.32;;;1.92;;
32918;SDS011;19280;42.646;21.150;2022-07-19T10:04:19;4.95;;;1.70;;
32918;SDS011;19280;42.646;21.150;2022-07-19T10:06:46;4.97;;;2.28;;
32918;SDS011;19280;42.646;21.150;2022-07-19T10:09:14;5.40;;;2.10;;
32918;SDS011;19280;42.646;21.150;2022-07-19T10:11:41;8.65;;;2.20;;
32918;SDS011;19280;42.646;21.150;2022-07-19T10:14:09;8.02;;;2.47;;
32918;SDS011;19280;42.646;21.150;2022-07-19T10:19:22;2.05;;;1.38;;
32918;SDS011;19280;42.646;21.150;2022-07-19T10:21:52;2.72;;;1.48;;
32918;SDS011;19280;42.646;21.150;2022-07-19T10:27:06;2.22;;;1.35;;
32918;SDS011;19280;42.646;21.150;2022-07-19T10:29:34;5.10;;;2.63;;
32918;SDS011;19280;42.646;21.150;2022-07-19T10:32:05;2.42;;;1.60;;
32918;SDS011;19280;42.646;21.150;2022-07-19T10:34:32;3.60;;;1.67;;
32918;SDS011;19280;42.646;21.150;2022-07-19T10:37:00;3.28;;;1.50;;
32918;SDS011;19280;42.646;21.150;2022-07-19T10:39:28;4.55;;;1.55;;
32918;SDS011;19280;42.646;21.150;2022-07-19T10:42:03;2.00;;;1.55;;
32918;SDS011;19280;42.646;21.150;2022-07-19T10:44:30;6.55;;;1.70;;
32918;SDS011;19280;42.646;21.150;2022-07-19T10:46:56;6.85;;;1.48;;
32918;SDS011;19280;42.646;21.150;2022-07-19T10:49:40;2.70;;;1.70;;
32918;SDS011;19280;42.646;21.150;2022-07-19T10:55:40;5.97;;;2.20;;
32918;SDS011;19280;42.646;21.150;2022-07-19T10:57:53;5.63;;;1.77;;
32918;SDS011;19280;42.646;21.150;2022-07-19T11:02:47;5.68;;;1.98;;
32918;SDS011;19280;42.646;21.150;2022-07-19T11:05:24;2.75;;;1.45;;
32918;SDS011;19280;42.646;21.150;2022-07-19T11:07:52;4.50;;;1.40;;
32918;SDS011;19280;42.646;21.150;2022-07-19T11:10:25;2.15;;;1.40;;
32918;SDS011;19280;42.646;21.150;2022-07-19T11:12:52;4.85;;;1.80;;
32918;SDS011;19280;42.646;21.150;2022-07-19T11:15:19;2.15;;;1.40;;
32918;SDS011;19280;42.646;21.150;2022-07-19T11:17:55;2.85;;;1.52;;
32918;SDS011;19280;42.646;21.150;2022-07-19T11:20:26;6.55;;;1.85;;
32918;SDS011;19280;42.646;21.150;2022-07-19T11:22:53;6.83;;;1.83;;
32918;SDS011;19280;42.646;21.150;2022-07-19T11:25:23;5.25;;;1.92;;
32918;SDS011;19280;42.646;21.150;2022-07-19T11:27:50;5.68;;;1.60;;
32918;SDS011;19280;42.646;21.150;2022-07-19T11:30:17;6.32;;;1.63;;
32918;SDS011;19280;42.646;21.150;2022-07-19T11:32:55;4.45;;;2.10;;
32918;SDS011;19280;42.646;21.150;2022-07-19T11:35:22;5.10;;;1.85;;
32918;SDS011;19280;42.646;21.150;2022-07-19T11:37:51;5.88;;;2.15;;
32918;SDS011;19280;42.646;21.150;2022-07-19T11:40:18;5.60;;;1.65;;
32918;SDS011;19280;42.646;21.150;2022-07-19T11:42:45;4.13;;;1.90;;
32918;SDS011;19280;42.646;21.150;2022-07-19T11:45:13;2.78;;;1.55;;
32918;SDS011;19280;42.646;21.150;2022-07-19T11:47:45;3.15;;;1.60;;
32918;SDS011;19280;42.646;21.150;2022-07-19T11:50:16;3.35;;;1.80;;
32918;SDS011;19280;42.646;21.150;2022-07-19T11:52:53;3.63;;;1.70;;
32918;SDS011;19280;42.646;21.150;2022-07-19T11:55:22;6.82;;;1.80;;
32918;SDS011;19280;42.646;21.150;2022-07-19T11:57:49;3.28;;;1.80;;
32918;SDS011;19280;42.646;21.150;2022-07-19T12:00:16;2.70;;;1.42;;
32918;SDS011;19280;42.646;21.150;2022-07-19T12:02:59;3.58;;;1.90;;
32918;SDS011;19280;42.646;21.150;2022-07-19T12:05:34;6.15;;;1.83;;
32918;SDS011;19280;42.646;21.150;2022-07-19T12:08:04;5.38;;;1.83;;
32918;SDS011;19280;42.646;21.150;2022-07-19T12:10:36;4.72;;;1.73;;
32918;SDS011;19280;42.646;21.150;2022-07-19T12:13:04;4.47;;;1.98;;
32918;SDS011;19280;42.646;21.150;2022-07-19T12:15:50;3.78;;;1.80;;
32918;SDS011;19280;42.646;21.150;2022-07-19T12:18:19;3.55;;;1.88;;
32918;SDS011;19280;42.646;21.150;2022-07-19T12:23:34;2.38;;;1.90;;
32918;SDS011;19280;42.646;21.150;2022-07-19T12:26:03;2.72;;;1.88;;
32918;SDS011;19280;42.646;21.150;2022-07-19T12:28:30;4.22;;;1.75;;
32918;SDS011;19280;42.646;21.150;2022-07-19T12:31:05;2.60;;;1.27;;
32918;SDS011;19280;42.646;21.150;2022-07-19T12:33:32;2.17;;;1.42;;
32918;SDS011;19280;42.646;21.150;2022-07-19T12:35:58;3.95;;;1.90;;
32918;SDS011;19280;42.646;21.150;2022-07-19T12:38:32;7.72;;;1.98;;
32918;SDS011;19280;42.646;21.150;2022-07-19T12:41:06;2.67;;;1.60;;
32918;SDS011;19280;42.646;21.150;2022-07-19T12:43:33;2.58;;;1.60;;
32918;SDS011;19280;42.646;21.150;2022-07-19T12:46:00;3.35;;;1.70;;
32918;SDS011;19280;42.646;21.150;2022-07-19T12:48:27;2.78;;;1.52;;
32918;SDS011;19280;42.646;21.150;2022-07-19T12:50:54;2.25;;;1.40;;
32918;SDS011;19280;42.646;21.150;2022-07-19T12:53:21;8.18;;;2.00;;
32918;SDS011;19280;42.646;21.150;2022-07-19T12:55:49;7.90;;;2.47;;
32918;SDS011;19280;42.646;21.150;2022-07-19T12:58:16;4.90;;;2.13;;
32918;SDS011;19280;42.646;21.150;2022-07-19T13:01:04;3.00;;;1.83;;
32918;SDS011;19280;42.646;21.150;2022-07-19T13:03:38;3.88;;;1.75;;
32918;SDS011;19280;42.646;21.150;2022-07-19T13:06:05;2.63;;;1.70;;
32918;SDS011;19280;42.646;21.150;2022-07-19T13:08:32;2.42;;;1.60;;
32918;SDS011;19280;42.646;21.150;2022-07-19T13:10:58;9.57;;;1.98;;
32918;SDS011;19280;42.646;21.150;2022-07-19T13:13:25;3.67;;;2.28;;
32918;SDS011;19280;42.646;21.150;2022-07-19T13:15:52;7.00;;;1.90;;
32918;SDS011;19280;42.646;21.150;2022-07-19T13:18:20;3.55;;;1.73;;
32918;SDS011;19280;42.646;21.150;2022-07-19T13:20:47;3.00;;;1.85;;
32918;SDS011;19280;42.646;21.150;2022-07-19T13:23:14;7.18;;;2.25;;
32918;SDS011;19280;42.646;21.150;2022-07-19T13:25:41;7.00;;;2.22;;
32918;SDS011;19280;42.646;21.150;2022-07-19T13:28:07;2.95;;;1.70;;
32918;SDS011;19280;42.646;21.150;2022-07-19T13:30:34;6.45;;;2.13;;
32918;SDS011;19280;42.646;21.150;2022-07-19T13:33:02;3.72;;;2.35;;
32918;SDS011;19280;42.646;21.150;2022-07-19T13:35:28;3.55;;;2.47;;
32918;SDS011;19280;42.646;21.150;2022-07-19T13:37:56;11.43;;;4.68;;
32918;SDS011;19280;42.646;21.150;2022-07-19T13:40:23;5.60;;;1.73;;
32918;SDS011;19280;42.646;21.150;2022-07-19T13:42:50;3.17;;;1.90;;
32918;SDS011;19280;42.646;21.150;2022-07-19T13:45:18;6.05;;;2.00;;
32918;SDS011;19280;42.646;21.150;2022-07-19T13:47:44;2.58;;;1.83;;
32918;SDS011;19280;42.646;21.150;2022-07-19T13:50:11;1.95;;;1.70;;
32918;SDS011;19280;42.646;21.150;2022-07-19T13:52:38;3.53;;;1.98;;
32918;SDS011;19280;42.646;21.150;2022-07-19T13:55:04;5.20;;;2.25;;
32918;SDS011;19280;42.646;21.150;2022-07-19T13:57:31;5.25;;;1.75;;
32918;SDS011;19280;42.646;21.150;2022-07-19T13:59:58;3.30;;;1.70;;
32918;SDS011;19280;42.646;21.150;2022-07-19T14:02:25;2.28;;;1.75;;
32918;SDS011;19280;42.646;21.150;2022-07-19T14:04:53;4.07;;;1.80;;
32918;SDS011;19280;42.646;21.150;2022-07-19T14:07:19;6.05;;;2.03;;
32918;SDS011;19280;42.646;21.150;2022-07-19T14:09:46;2.67;;;1.67;;
32918;SDS011;19280;42.646;21.150;2022-07-19T14:12:13;3.10;;;1.70;;
32918;SDS011;19280;42.646;21.150;2022-07-19T14:14:40;4.53;;;1.77;;
32918;SDS011;19280;42.646;21.150;2022-07-19T14:17:06;2.75;;;1.73;;
32918;SDS011;19280;42.646;21.150;2022-07-19T14:19:34;2.60;;;1.60;;
32918;SDS011;19280;42.646;21.150;2022-07-19T14:22:03;2.10;;;1.52;;
32918;SDS011;19280;42.646;21.150;2022-07-19T14:24:31;3.63;;;1.70;;
32918;SDS011;19280;42.646;21.150;2022-07-19T14:26:57;2.83;;;1.75;;
32918;SDS011;19280;42.646;21.150;2022-07-19T14:29:25;2.05;;;1.60;;
32918;SDS011;19280;42.646;21.150;2022-07-19T14:31:52;1.80;;;1.60;;
32918;SDS011;19280;42.646;21.150;2022-07-19T14:34:18;2.60;;;1.77;;
32918;SDS011;19280;42.646;21.150;2022-07-19T14:36:45;2.65;;;1.85;;
32918;SDS011;19280;42.646;21.150;2022-07-19T14:39:12;2.83;;;1.90;;
32918;SDS011;19280;42.646;21.150;2022-07-19T14:41:39;4.20;;;2.15;;
32918;SDS011;19280;42.646;21.150;2022-07-19T14:44:06;6.50;;;1.80;;
32918;SDS011;19280;42.646;21.150;2022-07-19T14:46:32;2.05;;;1.50;;
32918;SDS011;19280;42.646;21.150;2022-07-19T14:48:59;3.33;;;1.95;;
32918;SDS011;19280;42.646;21.150;2022-07-19T14:51:27;4.95;;;1.65;;
32918;SDS011;19280;42.646;21.150;2022-07-19T14:53:53;4.88;;;1.98;;
32918;SDS011;19280;42.646;21.150;2022-07-19T14:56:21;3.53;;;1.88;;
32918;SDS011;19280;42.646;21.150;2022-07-19T14:58:48;3.17;;;1.70;;
32918;SDS011;19280;42.646;21.150;2022-07-19T15:01:15;3.45;;;1.60;;
32918;SDS011;19280;42.646;21.150;2022-07-19T15:03:41;3.45;;;1.92;;
32918;SDS011;19280;42.646;21.150;2022-07-19T15:06:08;3.20;;;1.55;;